Time;durP1;ratioP1;P1;durP2;ratioP2;P2;SDS_P1;SDS_P2;PMS_P1;PMS_P2;Temp;Humidity;BMP_temperature;BMP_pressure;BME280_temperature;BME280_humidity;BME280_pressure;Samples;Min_cycle;Max_cycle;Signal;HPM_P1;HPM_P2
2021/09/12 00:01:14;;;;;;;;;;;;;;;16.67;63.23;98276.59;1598982;88;20835;-87
2021/09/12 00:03:42;;;;;;;;;;;;;;;16.68;63.26;98276.94;1567991;89;24806;-87
2021/09/12 00:06:08;;;;;;;;;;;;;;;16.69;63.32;98278.61;1593299;87;22139;-87
2021/09/12 00:08:34;;;;;;;;;;;;;;;16.65;63.33;98274.09;1568035;90;26049;-87
2021/09/12 00:11:00;;;;;;;;;;;;;;;16.65;63.39;98273.26;1596115;88;20936;-87
2021/09/12 00:13:25;;;;;;;;;;;;;;;16.62;63.40;98270.44;1568176;90;20961;-86
2021/09/12 00:15:52;;;;;;;;;;;;;;;16.62;63.47;98273.56;1590850;88;20253;-86
2021/09/12 00:18:18;;;;;;;;;;;;;;;16.61;63.51;98277.19;1571524;90;22259;-86
2021/09/12 00:20:46;;;;;;;;;;;;;;;16.56;63.55;98273.64;1591214;89;25976;-86
2021/09/12 00:23:12;;;;;;;;;;;;;;;16.48;63.63;98280.63;1564282;90;24464;-86
2021/09/12 00:25:38;;;;;;;;;;;;;;;16.39;63.74;98278.39;1598702;88;20527;-86
2021/09/12 00:28:04;;;;;;;;;;;;;;;16.28;63.90;98278.59;1567540;90;24764;-86
2021/09/12 00:30:30;;;;;;;;;;;;;;;16.18;64.04;98283.09;1591260;88;21899;-86
2021/09/12 00:32:57;;;;;;;;;;;;;;;16.10;64.18;98277.20;1570049;90;26080;-86
2021/09/12 00:35:23;;;;;;;;;;;;;;;16.11;64.37;98276.23;1583621;88;24473;-86
2021/09/12 00:37:50;;;;;;;;;;;;;;;16.11;64.57;98275.39;1572787;89;20256;-85
2021/09/12 00:40:18;;;;;;;;;;;;;;;16.14;64.73;98272.00;1604143;88;24870;-86
2021/09/12 00:42:44;;;;;;;;;;;;;;;16.27;64.87;98272.95;1591358;89;22874;-86
2021/09/12 00:45:10;;;;;;;;;;;;;;;16.37;64.97;98269.77;1568548;90;21543;-86
2021/09/12 00:47:37;;;;;;;;;;;;;;;16.44;65.01;98270.02;1595803;88;24519;-86
2021/09/12 00:50:03;;;;;;;;;;;;;;;16.46;65.06;98274.67;1590880;88;20620;-85
2021/09/12 00:52:31;;;;;;;;;;;;;;;16.43;65.04;98276.28;1568296;90;24794;-85
2021/09/12 00:54:58;;;;;;;;;;;;;;;16.42;65.04;98278.08;1587389;88;22009;-85
2021/09/12 00:57:23;;;;;;;;;;;;;;;16.47;65.09;98274.54;1568014;90;26213;-85
2021/09/12 00:59:50;;;;;;;;;;;;;;;16.57;65.14;98278.44;1590509;89;24618;-85
2021/09/12 01:02:19;;;;;;;;;;;;;;;16.58;65.10;98279.59;1562534;90;20528;-85
2021/09/12 01:04:48;;;;;;;;;;;;;;;16.61;65.06;98280.66;1591174;88;24838;-86
2021/09/12 01:07:14;;;;;;;;;;;;;;;16.63;65.03;98276.55;1571565;90;22807;-85
2021/09/12 01:09:41;;;;;;;;;;;;;;;16.66;64.95;98269.16;1592601;89;25992;-85
2021/09/12 01:12:08;;;;;;;;;;;;;;;16.68;64.92;98278.27;1564224;90;24498;-85
2021/09/12 01:14:35;;;;;;;;;;;;;;;16.68;64.89;98281.73;1592091;89;20246;-86
2021/09/12 01:17:01;;;;;;;;;;;;;;;16.66;64.84;98278.41;1569529;89;24791;-85
2021/09/12 01:19:28;;;;;;;;;;;;;;;16.65;64.80;98279.37;1606903;86;22201;-85
2021/09/12 01:21:59;;;;;;;;;;;;;;;16.59;64.74;98278.64;1605057;88;26791;-85
2021/09/12 01:24:28;;;;;;;;;;;;;;;16.52;64.70;98272.77;1583580;89;24212;-85
2021/09/12 01:26:54;;;;;;;;;;;;;;;16.38;64.67;98274.56;1585803;89;20245;-85
2021/09/12 01:29:21;;;;;;;;;;;;;;;16.23;64.68;98272.43;1584040;89;24895;-85
2021/09/12 01:31:47;;;;;;;;;;;;;;;16.14;64.73;98282.56;1591729;89;22104;-85
2021/09/12 01:34:16;;;;;;;;;;;;;;;16.09;64.79;98283.45;1582350;89;21005;-85
2021/09/12 01:36:42;;;;;;;;;;;;;;;16.16;64.88;98283.22;1587925;89;24541;-86
2021/09/12 01:39:08;;;;;;;;;;;;;;;16.20;64.92;98280.63;1589979;89;20219;-86
2021/09/12 01:41:34;;;;;;;;;;;;;;;16.18;64.94;98277.32;1567518;89;24644;-85
2021/09/12 01:44:01;;;;;;;;;;;;;;;16.20;64.97;98278.50;1580654;89;20835;-85
2021/09/12 01:46:28;;;;;;;;;;;;;;;16.19;65.00;98278.98;1594169;89;25595;-85
2021/09/12 01:48:55;;;;;;;;;;;;;;;16.20;65.04;98279.83;1599435;89;24511;-85
2021/09/12 01:51:20;;;;;;;;;;;;;;;16.16;65.05;98275.79;1571717;89;20214;-86
2021/09/12 01:53:56;;;;;;;;;;;;;;;16.17;65.08;98278.29;1585815;89;20335;-86
2021/09/12 01:56:22;;;;;;;;;;;;;;;16.08;65.10;98279.17;1588085;89;22073;-86
2021/09/12 01:58:48;;;;;;;;;;;;;;;16.08;65.15;98279.66;1586670;89;25472;-85
2021/09/12 02:01:14;;;;;;;;;;;;;;;16.09;65.19;98276.85;1588314;89;20368;-85
2021/09/12 02:03:40;;;;;;;;;;;;;;;16.12;65.23;98273.11;1583012;89;20515;-85
2021/09/12 02:06:06;;;;;;;;;;;;;;;16.13;65.24;98272.97;1584933;89;20265;-85
2021/09/12 02:08:32;;;;;;;;;;;;;;;16.11;65.25;98273.59;1592198;89;21978;-85
2021/09/12 02:10:58;;;;;;;;;;;;;;;16.11;65.28;98270.12;1579264;89;21087;-85
2021/09/12 02:13:24;;;;;;;;;;;;;;;16.10;65.27;98271.92;1604878;88;20281;-85
2021/09/12 02:15:50;;;;;;;;;;;;;;;16.09;65.29;98274.21;1600863;88;20295;-85
2021/09/12 02:18:16;;;;;;;;;;;;;;;16.10;65.29;98275.05;1574581;89;20258;-84
2021/09/12 02:20:42;;;;;;;;;;;;;;;16.11;65.33;98272.75;1574133;90;20528;-84
2021/09/12 02:23:08;;;;;;;;;;;;;;;16.06;65.35;98268.41;1586452;89;26026;-85
2021/09/12 02:25:34;;;;;;;;;;;;;;;16.01;65.37;98274.61;1577198;89;24498;-85
2021/09/12 02:28:01;;;;;;;;;;;;;;;15.95;65.39;98270.73;1599491;88;20490;-85
2021/09/12 02:30:27;;;;;;;;;;;;;;;15.90;65.42;98274.30;1589236;89;24776;-85
2021/09/12 02:32:53;;;;;;;;;;;;;;;15.86;65.45;98268.98;1590112;88;20354;-85
2021/09/12 02:35:19;;;;;;;;;;;;;;;15.83;65.49;98275.36;1574436;89;26034;-85
2021/09/12 02:37:45;;;;;;;;;;;;;;;15.79;65.55;98274.47;1602003;88;24147;-84
2021/09/12 02:40:12;;;;;;;;;;;;;;;15.70;65.59;98277.98;1574933;90;20490;-84
2021/09/12 02:42:39;;;;;;;;;;;;;;;15.64;65.62;98271.95;1601130;88;24780;-84
2021/09/12 02:45:07;;;;;;;;;;;;;;;15.60;65.70;98267.95;1575286;90;21970;-84
2021/09/12 02:47:33;;;;;;;;;;;;;;;15.57;65.74;98264.26;1590700;88;25938;-84
2021/09/12 02:50:00;;;;;;;;;;;;;;;15.46;65.82;98264.73;1576067;89;25122;-84
2021/09/12 02:52:31;;;;;;;;;;;;;;;15.38;65.87;98267.75;1601846;88;20310;-85
2021/09/12 02:54:54;;;;;;;;;;;;;;;15.33;65.96;98268.63;1574063;89;24755;-85
2021/09/12 02:57:20;;;;;;;;;;;;;;;15.35;66.03;98271.97;1601319;88;20311;-85
2021/09/12 02:59:46;;;;;;;;;;;;;;;15.40;66.10;98271.05;1558564;91;21235;-85
2021/09/12 03:02:13;;;;;;;;;;;;;;;15.46;66.19;98271.33;1601399;88;24471;-85
2021/09/12 03:04:39;;;;;;;;;;;;;;;15.51;66.28;98273.53;1574863;91;20308;-84
2021/09/12 03:07:05;;;;;;;;;;;;;;;15.53;66.31;98271.63;1601579;88;20747;-84
2021/09/12 03:09:31;;;;;;;;;;;;;;;15.53;66.34;98265.04;1575364;91;20897;-84
2021/09/12 03:11:57;;;;;;;;;;;;;;;15.55;66.40;98269.66;1600481;88;20983;-84
2021/09/12 03:14:23;;;;;;;;;;;;;;;15.55;66.45;98264.91;1572790;89;20256;-84
2021/09/12 03:16:49;;;;;;;;;;;;;;;15.41;66.49;98267.45;1549491;91;20262;-84
2021/09/12 03:19:15;;;;;;;;;;;;;;;15.34;66.53;98263.22;1569124;90;24825;-84
2021/09/12 03:21:42;;;;;;;;;;;;;;;15.41;66.64;98264.81;1564804;90;21931;-85
2021/09/12 03:24:08;;;;;;;;;;;;;;;15.48;66.71;98264.13;1542716;91;26105;-85
2021/09/12 03:26:35;;;;;;;;;;;;;;;15.53;66.78;98257.61;1575051;89;37787;-85
2021/09/12 03:29:02;;;;;;;;;;;;;;;15.55;66.83;98260.95;1564891;90;20261;-85
2021/09/12 03:31:29;;;;;;;;;;;;;;;15.58;66.87;98260.17;1555856;91;24908;-85
2021/09/12 03:33:55;;;;;;;;;;;;;;;15.58;66.89;98260.17;1558746;91;21988;-84
2021/09/12 03:36:26;;;;;;;;;;;;;;;15.58;66.96;98258.84;1557401;91;26165;-84
2021/09/12 03:38:50;;;;;;;;;;;;;;;15.59;66.99;98259.69;1557333;91;24588;-84
2021/09/12 03:41:16;;;;;;;;;;;;;;;15.57;67.02;98256.34;1561594;90;20265;-83
2021/09/12 03:43:49;;;;;;;;;;;;;;;15.59;67.08;98259.69;1568494;89;21706;-86
2021/09/12 03:46:15;;;;;;;;;;;;;;;15.61;67.13;98258.55;1569148;89;21975;-85
2021/09/12 03:48:41;;;;;;;;;;;;;;;15.65;67.16;98261.75;1565746;90;21056;-86
2021/09/12 03:51:10;;;;;;;;;;;;;;;15.61;67.18;98257.23;1546796;91;24468;-86
2021/09/12 03:53:36;;;;;;;;;;;;;;;15.60;67.23;98253.44;1557639;91;20227;-87
2021/09/12 03:56:02;;;;;;;;;;;;;;;15.62;67.28;98254.11;1556218;91;24820;-86
2021/09/12 03:58:28;;;;;;;;;;;;;;;15.60;67.29;98258.72;1558615;90;22016;-86
2021/09/12 04:00:57;;;;;;;;;;;;;;;15.53;67.32;98259.77;1564023;90;25959;-86
2021/09/12 04:03:23;;;;;;;;;;;;;;;15.48;67.34;98259.33;1547447;90;24434;-85
2021/09/12 04:05:49;;;;;;;;;;;;;;;15.48;67.43;98258.84;1565869;89;20355;-85
2021/09/12 04:08:20;;;;;;;;;;;;;;;15.45;67.47;98253.84;1565219;89;24532;-85
2021/09/12 04:10:43;;;;;;;;;;;;;;;15.43;67.51;98261.08;1559111;91;22806;-85
2021/09/12 04:13:09;;;;;;;;;;;;;;;15.44;67.58;98265.35;1551552;91;26713;-86
2021/09/12 04:15:35;;;;;;;;;;;;;;;15.43;67.62;98264.20;1563104;90;20930;-85
2021/09/12 04:18:01;;;;;;;;;;;;;;;15.40;67.68;98260.02;1575855;89;20705;-86
2021/09/12 04:20:33;;;;;;;;;;;;;;;15.43;67.74;98273.43;1559718;91;24819;-85
2021/09/12 04:22:59;;;;;;;;;;;;;;;15.45;67.79;98263.06;1592082;89;22000;-86
2021/09/12 04:25:25;;;;;;;;;;;;;;;15.43;67.86;98268.98;1588959;89;20988;-86
2021/09/12 04:27:51;;;;;;;;;;;;;;;15.31;67.90;98278.02;1591059;89;24519;-86
2021/09/12 04:30:17;;;;;;;;;;;;;;;15.30;67.97;98275.03;1592841;89;20176;-86
2021/09/12 04:32:43;;;;;;;;;;;;;;;15.35;68.07;98278.56;1593601;89;20814;-86
2021/09/12 04:35:09;;;;;;;;;;;;;;;15.40;68.18;98282.44;1588914;89;21358;-85
2021/09/12 04:37:35;;;;;;;;;;;;;;;15.42;68.25;98279.67;1588300;89;26067;-84
2021/09/12 04:40:01;;;;;;;;;;;;;;;15.46;68.32;98290.27;1588939;89;24536;-85
2021/09/12 04:42:28;;;;;;;;;;;;;;;15.49;68.42;98286.05;1569253;90;20271;-85
2021/09/12 04:44:53;;;;;;;;;;;;;;;15.57;68.51;98288.83;1590141;89;25422;-85
2021/09/12 04:47:23;;;;;;;;;;;;;;;15.66;68.55;98287.97;1586362;89;20244;-85
2021/09/12 04:49:49;;;;;;;;;;;;;;;15.81;68.59;98279.97;1589712;89;26195;-84
2021/09/12 04:52:15;;;;;;;;;;;;;;;15.94;68.64;98284.91;1587037;90;24500;-84
2021/09/12 04:54:42;;;;;;;;;;;;;;;16.04;68.65;98282.25;1591527;89;20432;-84
2021/09/12 04:57:08;;;;;;;;;;;;;;;16.11;68.64;98283.31;1587776;89;24932;-84
2021/09/12 04:59:36;;;;;;;;;;;;;;;16.16;68.60;98281.06;1588742;89;20829;-84
2021/09/12 05:02:01;;;;;;;;;;;;;;;16.17;68.59;98286.70;1590217;89;26817;-84
2021/09/12 05:04:27;;;;;;;;;;;;;;;16.16;68.54;98282.39;1585194;89;24457;-84
2021/09/12 05:06:53;;;;;;;;;;;;;;;16.14;68.53;98287.00;1590907;89;20397;-85
2021/09/12 05:09:21;;;;;;;;;;;;;;;16.15;68.52;98290.80;1590673;89;24729;-85
2021/09/12 05:11:47;;;;;;;;;;;;;;;16.16;68.51;98288.50;1587846;89;22884;-84
2021/09/12 05:14:13;;;;;;;;;;;;;;;16.18;68.47;98289.20;1586650;89;26085;-85
2021/09/12 05:16:39;;;;;;;;;;;;;;;16.23;68.44;98287.44;1587053;88;24486;-85
2021/09/12 05:19:08;;;;;;;;;;;;;;;16.27;68.42;98286.99;1593221;89;20308;-86
2021/09/12 05:21:34;;;;;;;;;;;;;;;16.33;68.43;98289.54;1595613;89;20432;-85
2021/09/12 05:24:00;;;;;;;;;;;;;;;16.37;68.40;98290.06;1595964;89;22042;-85
2021/09/12 05:26:29;;;;;;;;;;;;;;;16.39;68.37;98296.88;1586738;89;21093;-85
2021/09/12 05:29:07;;;;;;;;;;;;;;;16.42;68.34;98294.45;1595049;89;24429;-85
2021/09/12 05:31:33;;;;;;;;;;;;;;;16.42;68.34;98291.29;1568483;90;20523;-85
2021/09/12 05:33:59;;;;;;;;;;;;;;;16.43;68.34;98294.77;1592426;89;20814;-86
2021/09/12 05:36:25;;;;;;;;;;;;;;;16.48;68.34;98293.83;1594269;89;21955;-85
2021/09/12 05:38:52;;;;;;;;;;;;;;;16.49;68.33;98291.54;1592762;89;26054;-85
2021/09/12 05:41:18;;;;;;;;;;;;;;;16.49;68.35;98290.22;1596625;89;24530;-86
2021/09/12 05:43:44;;;;;;;;;;;;;;;16.50;68.37;98294.53;1592208;89;21159;-85
2021/09/12 05:46:10;;;;;;;;;;;;;;;16.53;68.38;98300.34;1592236;89;24819;-86
2021/09/12 05:48:36;;;;;;;;;;;;;;;16.51;68.37;98301.00;1593137;89;20819;-86
2021/09/12 05:51:02;;;;;;;;;;;;;;;16.52;68.39;98299.19;1599111;89;21067;-85
2021/09/12 05:53:28;;;;;;;;;;;;;;;16.55;68.44;98299.71;1593312;89;24552;-86
2021/09/12 05:55:54;;;;;;;;;;;;;;;16.58;68.45;98298.60;1591660;89;20918;-85
2021/09/12 05:58:20;;;;;;;;;;;;;;;16.57;68.44;98293.80;1588289;89;20803;-85
2021/09/12 06:00:46;;;;;;;;;;;;;;;16.61;68.48;98298.32;1590567;89;20858;-86
2021/09/12 06:03:12;;;;;;;;;;;;;;;16.65;68.48;98296.55;1594094;89;21048;-85
2021/09/12 06:05:38;;;;;;;;;;;;;;;16.67;68.49;98296.41;1592333;89;24517;-85
2021/09/12 06:08:04;;;;;;;;;;;;;;;16.68;68.52;98300.72;1565297;89;20352;-85
2021/09/12 06:10:30;;;;;;;;;;;;;;;16.71;68.53;98296.45;1598502;89;24798;-85
2021/09/12 06:12:56;;;;;;;;;;;;;;;16.75;68.56;98295.68;1596753;89;22117;-85
2021/09/12 06:15:22;;;;;;;;;;;;;;;16.79;68.57;98294.39;1593455;88;27002;-85
2021/09/12 06:17:48;;;;;;;;;;;;;;;16.82;68.60;98290.95;1594859;89;20290;-87
2021/09/12 06:20:14;;;;;;;;;;;;;;;16.83;68.60;98295.27;1592446;89;20718;-85
2021/09/12 06:22:42;;;;;;;;;;;;;;;16.90;68.65;98294.17;1593794;89;20310;-85
2021/09/12 06:25:08;;;;;;;;;;;;;;;16.93;68.62;98295.19;1596351;89;22119;-85
2021/09/12 06:27:34;;;;;;;;;;;;;;;16.96;68.63;98296.22;1593483;89;26175;-85
2021/09/12 06:30:00;;;;;;;;;;;;;;;17.03;68.67;98298.58;1594564;89;20344;-83
2021/09/12 06:32:26;;;;;;;;;;;;;;;17.07;68.72;98294.68;1587278;89;20300;-83
2021/09/12 06:34:52;;;;;;;;;;;;;;;17.12;68.77;98299.86;1589320;89;24848;-82
2021/09/12 06:37:18;;;;;;;;;;;;;;;17.13;68.75;98301.49;1584085;89;22012;-83
2021/09/12 06:39:44;;;;;;;;;;;;;;;17.18;68.75;98301.55;1590707;89;21045;-83
2021/09/12 06:42:10;;;;;;;;;;;;;;;17.22;68.73;98305.55;1587580;89;24436;-84
2021/09/12 06:44:36;;;;;;;;;;;;;;;17.25;68.74;98303.42;1590080;89;20284;-83
2021/09/12 06:47:02;;;;;;;;;;;;;;;17.30;68.74;98305.59;1587876;89;24808;-83
2021/09/12 06:49:29;;;;;;;;;;;;;;;17.34;68.71;98313.11;1590800;89;21977;-83
2021/09/12 06:52:00;;;;;;;;;;;;;;;17.41;68.71;98308.01;1588053;89;26601;-83
2021/09/12 06:54:31;;;;;;;;;;;;;;;17.52;68.74;98309.92;1590761;89;24574;-84
2021/09/12 06:57:00;;;;;;;;;;;;;;;17.60;68.76;98307.88;1590598;89;20241;-84
2021/09/12 06:59:27;;;;;;;;;;;;;;;17.73;68.78;98312.25;1615840;88;24998;-84
2021/09/12 07:01:53;;;;;;;;;;;;;;;17.81;68.77;98308.36;1597187;88;22729;-83
2021/09/12 07:04:24;;;;;;;;;;;;;;;17.89;68.77;98305.74;1585922;89;26146;-83
2021/09/12 07:06:47;;;;;;;;;;;;;;;17.99;68.73;98313.60;1594014;88;24533;-84
2021/09/12 07:09:13;;;;;;;;;;;;;;;18.07;68.71;98311.48;1594681;88;20239;-83
2021/09/12 07:11:48;;;;;;;;;;;;;;;18.16;68.68;98313.20;1590795;89;25336;-83
2021/09/12 07:14:14;;;;;;;;;;;;;;;18.26;68.62;98317.88;1565735;90;22008;-84
2021/09/12 07:16:42;;;;;;;;;;;;;;;18.39;68.60;98320.91;1589834;88;26679;-84
2021/09/12 07:19:08;;;;;;;;;;;;;;;18.51;68.60;98316.99;1565871;90;24554;-83
2021/09/12 07:21:35;;;;;;;;;;;;;;;18.63;68.53;98319.73;1594889;88;20305;-83
2021/09/12 07:24:01;;;;;;;;;;;;;;;18.74;68.46;98325.23;1568868;90;24815;-83
2021/09/12 07:26:28;;;;;;;;;;;;;;;18.86;68.38;98329.25;1591398;89;22869;-83
2021/09/12 07:28:55;;;;;;;;;;;;;;;19.00;68.30;98325.13;1565267;90;22413;-83
2021/09/12 07:31:22;;;;;;;;;;;;;;;19.12;68.23;98323.82;1592830;89;24412;-84
2021/09/12 07:33:48;;;;;;;;;;;;;;;19.25;68.21;98329.98;1573062;90;20362;-83
2021/09/12 07:36:14;;;;;;;;;;;;;;;19.36;68.18;98325.19;1593765;88;24824;-83
2021/09/12 07:38:40;;;;;;;;;;;;;;;19.46;68.14;98324.56;1564935;89;22070;-83
2021/09/12 07:41:09;;;;;;;;;;;;;;;19.53;68.02;98326.03;1595808;88;26052;-83
2021/09/12 07:43:35;;;;;;;;;;;;;;;19.62;67.90;98323.23;1566295;89;24533;-83
2021/09/12 07:46:01;;;;;;;;;;;;;;;19.72;67.79;98323.05;1595170;89;20343;-83
2021/09/12 07:48:28;;;;;;;;;;;;;;;19.85;67.64;98319.39;1563881;91;24844;-83
2021/09/12 07:50:54;;;;;;;;;;;;;;;19.97;67.50;98332.63;1592875;89;22068;-83
2021/09/12 07:53:20;;;;;;;;;;;;;;;20.06;67.42;98320.18;1563562;91;21190;-84
2021/09/12 07:55:46;;;;;;;;;;;;;;;20.15;67.30;98324.47;1597777;89;24611;-84
2021/09/12 07:58:13;;;;;;;;;;;;;;;20.26;67.15;98329.91;1568897;90;20190;-84
2021/09/12 08:00:46;;;;;;;;;;;;;;;20.34;67.03;98329.94;1594545;88;24622;-84
2021/09/12 08:03:12;;;;;;;;;;;;;;;20.37;66.88;98334.89;1569683;90;21983;-85
2021/09/12 08:05:38;;;;;;;;;;;;;;;20.39;66.72;98335.56;1570597;90;25991;-85
2021/09/12 08:08:04;;;;;;;;;;;;;;;20.37;66.55;98337.55;1593628;88;20325;-85
2021/09/12 08:10:30;;;;;;;;;;;;;;;20.46;66.49;98336.02;1565014;90;20289;-84
2021/09/12 08:12:56;;;;;;;;;;;;;;;20.58;66.45;98335.64;1590162;89;20849;-86
2021/09/12 08:15:28;;;;;;;;;;;;;;;20.61;66.28;98331.33;1566006;90;20930;-84
2021/09/12 08:17:54;;;;;;;;;;;;;;;20.62;66.12;98329.80;1603174;89;26142;-85
2021/09/12 08:20:39;;;;;;;;;;;;;;;20.68;65.94;98338.42;1554671;91;20592;-85
2021/09/12 08:23:05;;;;;;;;;;;;;;;20.76;65.80;98335.73;1603692;89;20209;-85
2021/09/12 08:25:31;;;;;;;;;;;;;;;20.82;65.59;98343.03;1578571;90;24977;-85
2021/09/12 08:28:05;;;;;;;;;;;;;;;20.81;65.39;98340.03;1600953;89;21971;-85
2021/09/12 08:30:28;;;;;;;;;;;;;;;20.88;65.25;98345.50;1574949;90;25965;-85
2021/09/12 08:32:58;;;;;;;;;;;;;;;21.02;65.19;98345.23;1602391;89;24481;-85
2021/09/12 08:35:22;;;;;;;;;;;;;;;21.15;65.14;98343.70;1576958;90;20227;-85
2021/09/12 08:37:48;;;;;;;;;;;;;;;21.32;65.17;98339.11;1604901;88;24717;-85
2021/09/12 08:40:14;;;;;;;;;;;;;;;21.41;65.11;98338.03;1579111;90;21924;-85
2021/09/12 08:42:44;;;;;;;;;;;;;;;21.41;64.94;98338.53;1605643;89;25969;-85
2021/09/12 08:45:10;;;;;;;;;;;;;;;21.37;64.59;98334.08;1578959;91;26343;-86
2021/09/12 08:47:36;;;;;;;;;;;;;;;21.49;64.57;98333.95;1604939;88;20264;-86
2021/09/12 08:50:02;;;;;;;;;;;;;;;21.57;64.36;98340.56;1579373;89;20769;-85
2021/09/12 08:52:34;;;;;;;;;;;;;;;21.65;64.17;98338.35;1607321;88;22049;-85
2021/09/12 08:55:02;;;;;;;;;;;;;;;21.69;63.97;98335.14;1578505;90;26002;-85
2021/09/12 08:57:28;;;;;;;;;;;;;;;21.79;63.80;98337.55;1606858;88;24486;-85
2021/09/12 08:59:54;;;;;;;;;;;;;;;21.93;63.70;98339.41;1575378;89;20332;-85
2021/09/12 09:02:25;;;;;;;;;;;;;;;22.06;63.64;98336.98;1604335;88;24734;-85
2021/09/12 09:04:53;;;;;;;;;;;;;;;22.08;63.46;98338.14;1580341;89;22030;-85
2021/09/12 09:07:21;;;;;;;;;;;;;;;22.02;63.26;98341.53;1603042;88;26024;-85
2021/09/12 09:09:49;;;;;;;;;;;;;;;21.93;63.07;98341.27;1576394;90;24453;-85
2021/09/12 09:12:19;;;;;;;;;;;;;;;21.90;62.97;98336.28;1604864;88;20248;-86
2021/09/12 09:14:47;;;;;;;;;;;;;;;21.98;63.03;98331.72;1576114;90;24789;-86
2021/09/12 09:17:18;;;;;;;;;;;;;;;22.15;63.17;98330.25;1600069;88;22167;-86
2021/09/12 09:19:52;;;;;;;;;;;;;;;22.24;63.11;98329.98;1585592;89;26770;-86
2021/09/12 09:22:31;;;;;;;;;;;;;;;22.21;62.95;98327.66;1564025;90;24563;-86
2021/09/12 09:25:09;;;;;;;;;;;;;;;22.24;62.85;98325.15;1591656;89;20631;-86
2021/09/12 09:27:54;;;;;;;;;;;;;;;22.32;62.83;98328.54;1589231;88;24816;-86
2021/09/12 09:30:21;;;;;;;;;;;;;;;22.32;62.68;98331.20;1562958;91;22081;-86
2021/09/12 09:32:47;;;;;;;;;;;;;;;22.23;62.48;98330.98;1589755;88;26823;-85
2021/09/12 09:35:14;;;;;;;;;;;;;;;22.18;62.35;98329.88;1568530;91;20286;-86
2021/09/12 09:37:42;;;;;;;;;;;;;;;22.13;62.22;98325.59;1567460;90;20479;-86
2021/09/12 09:40:14;;;;;;;;;;;;;;;22.22;62.26;98325.83;1570457;90;24946;-85
2021/09/12 09:42:41;;;;;;;;;;;;;;;22.29;62.29;98330.75;1574345;89;22713;-86
2021/09/12 09:45:18;;;;;;;;;;;;;;;22.27;62.18;98324.77;1585069;89;25966;-86
2021/09/12 09:47:45;;;;;;;;;;;;;;;22.21;62.03;98323.66;1590195;89;25235;-86
2021/09/12 09:50:15;;;;;;;;;;;;;;;22.22;62.01;98324.49;1586869;88;20294;-85
2021/09/12 09:52:45;;;;;;;;;;;;;;;22.29;62.06;98317.42;1584848;89;24765;-86
2021/09/12 09:55:14;;;;;;;;;;;;;;;22.41;62.14;98319.45;1589847;89;22007;-86
2021/09/12 09:57:39;;;;;;;;;;;;;;;22.51;62.17;98321.33;1590384;88;26179;-86
2021/09/12 10:00:06;;;;;;;;;;;;;;;22.54;62.07;98320.11;1590732;89;20337;-86
2021/09/12 10:02:35;;;;;;;;;;;;;;;22.64;62.06;98306.51;1586285;89;20352;-86
2021/09/12 10:05:07;;;;;;;;;;;;;;;22.66;61.98;98311.97;1586935;89;24773;-86
2021/09/12 10:07:37;;;;;;;;;;;;;;;22.70;61.96;98310.56;1588082;89;21990;-86
2021/09/12 10:10:07;;;;;;;;;;;;;;;22.78;61.95;98311.02;1587520;89;26245;-86
2021/09/12 10:12:35;;;;;;;;;;;;;;;22.88;61.87;98314.20;1574963;89;24679;-86
2021/09/12 10:15:03;;;;;;;;;;;;;;;22.90;61.77;98310.85;1590253;89;20596;-86
2021/09/12 10:17:29;;;;;;;;;;;;;;;22.79;61.52;98310.83;1586806;89;24801;-86
2021/09/12 10:20:09;;;;;;;;;;;;;;;22.70;61.29;98307.91;1589184;89;22124;-86
2021/09/12 10:22:54;;;;;;;;;;;;;;;22.65;61.12;98304.97;1586181;89;26067;-86
2021/09/12 10:25:25;;;;;;;;;;;;;;;22.66;61.10;98302.63;1600035;88;24516;-86
2021/09/12 10:28:05;;;;;;;;;;;;;;;22.78;61.17;98301.17;1594652;88;20201;-86
2021/09/12 10:30:40;;;;;;;;;;;;;;;22.96;61.31;98299.93;1570887;89;25582;-86
2021/09/12 10:33:08;;;;;;;;;;;;;;;23.07;61.30;98306.11;1594444;88;21521;-86
2021/09/12 10:35:37;;;;;;;;;;;;;;;23.05;61.04;98302.28;1591833;88;26164;-86
2021/09/12 10:38:13;;;;;;;;;;;;;;;23.02;60.81;98295.17;1567633;90;24448;-86
2021/09/12 10:40:50;;;;;;;;;;;;;;;23.11;60.86;98290.02;1570805;90;20310;-86
2021/09/12 10:43:28;;;;;;;;;;;;;;;23.27;60.93;98287.94;1593942;89;24909;-86
2021/09/12 10:46:08;;;;;;;;;;;;;;;23.39;60.92;98281.58;1597376;88;21955;-86
2021/09/12 10:48:35;;;;;;;;;;;;;;;23.53;60.94;98283.36;1567738;90;26280;-85
2021/09/12 10:51:02;;;;;;;;;;;;;;;23.67;60.86;98279.80;1589742;89;24169;-86
2021/09/12 10:53:45;;;;;;;;;;;;;;;23.75;60.76;98275.62;1592698;89;20514;-85
2021/09/12 10:56:13;;;;;;;;;;;;;;;23.85;60.75;98284.63;1591398;89;24856;-86
2021/09/12 10:58:39;;;;;;;;;;;;;;;23.90;60.72;98284.04;1595963;89;22962;-86
2021/09/12 11:01:06;;;;;;;;;;;;;;;23.82;60.53;98281.02;1589361;89;26080;-86
2021/09/12 11:03:33;;;;;;;;;;;;;;;23.74;60.38;98276.64;1597178;89;24468;-86
2021/09/12 11:05:59;;;;;;;;;;;;;;;23.76;60.39;98271.94;1590084;89;20387;-86
2021/09/12 11:08:32;;;;;;;;;;;;;;;23.83;60.38;98280.52;1585705;89;20776;-87
2021/09/12 11:10:58;;;;;;;;;;;;;;;23.87;60.27;98267.90;1590078;89;22071;-86
2021/09/12 11:13:24;;;;;;;;;;;;;;;23.88;60.04;98266.05;1589705;89;26107;-86
2021/09/12 11:15:51;;;;;;;;;;;;;;;23.88;59.89;98268.73;1594883;89;20903;-86
2021/09/12 11:18:17;;;;;;;;;;;;;;;23.89;59.75;98263.70;1584389;88;20246;-86
2021/09/12 11:20:45;;;;;;;;;;;;;;;23.96;59.69;98256.53;1578812;90;24847;-86
2021/09/12 11:23:11;;;;;;;;;;;;;;;24.03;59.58;98256.90;1570844;89;21570;-86
2021/09/12 11:25:37;;;;;;;;;;;;;;;24.10;59.48;98257.77;1571571;90;26026;-86
2021/09/12 11:28:06;;;;;;;;;;;;;;;24.08;59.31;98254.45;1570669;90;24716;-86
2021/09/12 11:30:35;;;;;;;;;;;;;;;24.08;59.21;98254.45;1582407;90;20273;-86
2021/09/12 11:33:02;;;;;;;;;;;;;;;24.15;59.08;98252.66;1596026;88;24887;-87
2021/09/12 11:35:28;;;;;;;;;;;;;;;24.22;58.99;98246.55;1571377;90;22002;-87
2021/09/12 11:38:04;;;;;;;;;;;;;;;24.16;58.81;98244.95;1592378;88;20972;-87
2021/09/12 11:40:30;;;;;;;;;;;;;;;24.23;58.75;98246.33;1572442;90;24581;-87
2021/09/12 11:43:07;;;;;;;;;;;;;;;24.30;58.67;98241.02;1575851;90;20327;-86
2021/09/12 11:45:33;;;;;;;;;;;;;;;24.36;58.55;98234.36;1574857;90;25185;-86
2021/09/12 11:48:00;;;;;;;;;;;;;;;24.49;58.56;98240.30;1576113;90;21949;-86
2021/09/12 11:50:26;;;;;;;;;;;;;;;24.51;58.41;98235.04;1615021;88;26080;-86
2021/09/12 11:52:55;;;;;;;;;;;;;;;24.53;58.37;98226.31;1562515;91;24515;-87
2021/09/12 11:55:23;;;;;;;;;;;;;;;24.54;58.28;98225.29;1585594;89;20600;-87
2021/09/12 11:57:59;;;;;;;;;;;;;;;24.52;58.07;98221.15;1590433;89;24844;-87
2021/09/12 12:00:26;;;;;;;;;;;;;;;24.49;57.83;98222.91;1592112;88;22025;-87
2021/09/12 12:02:52;;;;;;;;;;;;;;;24.45;57.58;98217.11;1587581;89;26002;-87
2021/09/12 12:05:19;;;;;;;;;;;;;;;24.51;57.52;98217.64;1560539;91;24098;-86
2021/09/12 12:07:45;;;;;;;;;;;;;;;24.63;57.56;98213.05;1589182;89;20807;-87
2021/09/12 12:10:15;;;;;;;;;;;;;;;24.69;57.47;98206.38;1566536;90;24907;-86
2021/09/12 12:12:40;;;;;;;;;;;;;;;24.79;57.46;98205.47;1588539;89;22070;-87
2021/09/12 12:15:07;;;;;;;;;;;;;;;24.90;57.46;98204.08;1592142;88;21135;-87
2021/09/12 12:17:34;;;;;;;;;;;;;;;24.95;57.34;98196.27;1563783;90;24554;-87
2021/09/12 12:20:00;;;;;;;;;;;;;;;24.99;57.28;98202.34;1601986;89;20289;-87
2021/09/12 12:22:36;;;;;;;;;;;;;;;24.99;57.11;98200.17;1580351;90;20243;-86
2021/09/12 12:25:02;;;;;;;;;;;;;;;25.00;56.97;98195.96;1604591;88;22759;-87
2021/09/12 12:27:28;;;;;;;;;;;;;;;25.06;56.92;98192.16;1580491;89;26705;-87
2021/09/12 12:29:56;;;;;;;;;;;;;;;25.10;56.91;98189.37;1605835;88;24538;-87
2021/09/12 12:32:24;;;;;;;;;;;;;;;25.11;56.85;98189.69;1607466;86;20227;-87
2021/09/12 12:34:52;;;;;;;;;;;;;;;25.11;56.81;98190.51;1578213;91;24830;-86
2021/09/12 12:37:20;;;;;;;;;;;;;;;25.07;56.78;98170.53;1605404;88;22593;-87
2021/09/12 12:39:57;;;;;;;;;;;;;;;25.12;56.68;98179.28;1575784;90;25998;-87
2021/09/12 12:42:35;;;;;;;;;;;;;;;25.03;56.45;98177.34;1603629;88;24535;-87
2021/09/12 12:45:03;;;;;;;;;;;;;;;25.04;56.41;98172.27;1579086;89;20573;-86
2021/09/12 12:47:29;;;;;;;;;;;;;;;25.05;56.31;98169.08;1607432;87;24769;-86
2021/09/12 12:49:58;;;;;;;;;;;;;;;25.04;56.29;98168.25;1579130;89;22060;-87